sensor_id;sensor_type;location;lat;lon;timestamp;P1;durP1;ratioP1;P2;durP2;ratioP2
18899;SDS011;9582;52.018;6.306;2023-03-08T00:00:05;14.70;;;9.57;;
18899;SDS011;9582;52.018;6.306;2023-03-08T00:02:36;14.33;;;9.20;;
18899;SDS011;9582;52.018;6.306;2023-03-08T00:05:02;14.43;;;9.23;;
18899;SDS011;9582;52.018;6.306;2023-03-08T00:07:29;14.30;;;9.13;;
18899;SDS011;9582;52.018;6.306;2023-03-08T00:09:57;14.27;;;9.27;;
18899;SDS011;9582;52.018;6.306;2023-03-08T00:12:24;14.30;;;9.53;;
18899;SDS011;9582;52.018;6.306;2023-03-08T00:14:50;15.90;;;10.67;;
18899;SDS011;9582;52.018;6.306;2023-03-08T00:17:17;14.20;;;10.07;;
18899;SDS011;9582;52.018;6.306;2023-03-08T00:19:44;19.43;;;11.53;;
18899;SDS011;9582;52.018;6.306;2023-03-08T00:22:10;17.60;;;11.37;;
18899;SDS011;9582;52.018;6.306;2023-03-08T00:24:37;17.17;;;11.57;;
18899;SDS011;9582;52.018;6.306;2023-03-08T00:27:05;17.50;;;11.63;;
18899;SDS011;9582;52.018;6.306;2023-03-08T00:29:31;23.03;;;12.37;;
18899;SDS011;9582;52.018;6.306;2023-03-08T00:31:58;19.40;;;11.90;;
18899;SDS011;9582;52.018;6.306;2023-03-08T00:34:24;22.10;;;13.20;;
18899;SDS011;9582;52.018;6.306;2023-03-08T00:36:51;21.00;;;12.93;;
18899;SDS011;9582;52.018;6.306;2023-03-08T00:39:18;24.53;;;13.87;;
18899;SDS011;9582;52.018;6.306;2023-03-08T00:41:44;21.80;;;14.40;;
18899;SDS011;9582;52.018;6.306;2023-03-08T00:44:13;19.83;;;13.37;;
18899;SDS011;9582;52.018;6.306;2023-03-08T00:46:39;21.13;;;14.63;;
18899;SDS011;9582;52.018;6.306;2023-03-08T00:49:06;24.17;;;14.53;;
18899;SDS011;9582;52.018;6.306;2023-03-08T00:51:32;25.77;;;14.93;;
18899;SDS011;9582;52.018;6.306;2023-03-08T00:53:59;25.13;;;14.57;;
18899;SDS011;9582;52.018;6.306;2023-03-08T00:56:25;25.03;;;16.30;;
18899;SDS011;9582;52.018;6.306;2023-03-08T00:58:52;25.13;;;14.80;;
18899;SDS011;9582;52.018;6.306;2023-03-08T01:01:19;27.17;;;15.97;;
18899;SDS011;9582;52.018;6.306;2023-03-08T01:03:48;24.60;;;15.67;;
18899;SDS011;9582;52.018;6.306;2023-03-08T01:06:14;22.13;;;14.80;;
18899;SDS011;9582;52.018;6.306;2023-03-08T01:08:41;23.13;;;14.97;;
18899;SDS011;9582;52.018;6.306;2023-03-08T01:11:13;25.60;;;15.53;;
18899;SDS011;9582;52.018;6.306;2023-03-08T01:13:41;22.70;;;14.67;;
18899;SDS011;9582;52.018;6.306;2023-03-08T01:16:13;20.77;;;14.83;;
18899;SDS011;9582;52.018;6.306;2023-03-08T01:18:42;24.10;;;15.20;;
18899;SDS011;9582;52.018;6.306;2023-03-08T01:21:09;21.57;;;13.27;;
18899;SDS011;9582;52.018;6.306;2023-03-08T01:23:36;27.40;;;15.27;;
18899;SDS011;9582;52.018;6.306;2023-03-08T01:26:05;30.17;;;17.03;;
18899;SDS011;9582;52.018;6.306;2023-03-08T01:28:33;30.50;;;16.57;;
18899;SDS011;9582;52.018;6.306;2023-03-08T01:31:01;33.10;;;17.07;;
18899;SDS011;9582;52.018;6.306;2023-03-08T01:33:28;32.83;;;17.87;;
18899;SDS011;9582;52.018;6.306;2023-03-08T01:35:56;45.43;;;18.90;;
18899;SDS011;9582;52.018;6.306;2023-03-08T01:38:23;42.73;;;18.00;;
18899;SDS011;9582;52.018;6.306;2023-03-08T01:40:53;31.57;;;18.10;;
18899;SDS011;9582;52.018;6.306;2023-03-08T01:43:22;51.83;;;20.63;;
18899;SDS011;9582;52.018;6.306;2023-03-08T01:48:46;114.10;;;30.10;;
18899;SDS011;9582;52.018;6.306;2023-03-08T01:51:20;77.47;;;25.67;;
18899;SDS011;9582;52.018;6.306;2023-03-08T01:53:51;61.60;;;23.00;;
18899;SDS011;9582;52.018;6.306;2023-03-08T01:56:18;80.10;;;25.63;;
18899;SDS011;9582;52.018;6.306;2023-03-08T01:58:47;62.93;;;22.60;;
18899;SDS011;9582;52.018;6.306;2023-03-08T02:01:16;51.87;;;18.20;;
18899;SDS011;9582;52.018;6.306;2023-03-08T02:03:45;51.43;;;17.63;;
18899;SDS011;9582;52.018;6.306;2023-03-08T02:06:14;43.03;;;16.97;;
18899;SDS011;9582;52.018;6.306;2023-03-08T02:08:43;60.73;;;19.97;;
18899;SDS011;9582;52.018;6.306;2023-03-08T02:11:10;164.23;;;30.97;;
18899;SDS011;9582;52.018;6.306;2023-03-08T02:13:38;64.97;;;26.50;;
18899;SDS011;9582;52.018;6.306;2023-03-08T02:16:07;328.63;;;45.83;;
18899;SDS011;9582;52.018;6.306;2023-03-08T02:18:47;215.00;;;37.47;;
18899;SDS011;9582;52.018;6.306;2023-03-08T02:21:15;115.93;;;27.70;;
18899;SDS011;9582;52.018;6.306;2023-03-08T02:23:43;237.57;;;35.60;;
18899;SDS011;9582;52.018;6.306;2023-03-08T02:26:09;153.70;;;30.90;;
18899;SDS011;9582;52.018;6.306;2023-03-08T02:28:36;88.30;;;28.70;;
18899;SDS011;9582;52.018;6.306;2023-03-08T02:31:03;71.37;;;25.83;;
18899;SDS011;9582;52.018;6.306;2023-03-08T02:33:30;77.40;;;27.17;;
18899;SDS011;9582;52.018;6.306;2023-03-08T02:35:59;107.87;;;30.53;;
18899;SDS011;9582;52.018;6.306;2023-03-08T02:38:26;68.60;;;26.60;;
18899;SDS011;9582;52.018;6.306;2023-03-08T02:40:54;50.63;;;23.57;;
18899;SDS011;9582;52.018;6.306;2023-03-08T02:43:21;66.97;;;26.33;;
18899;SDS011;9582;52.018;6.306;2023-03-08T02:45:48;68.40;;;26.40;;
18899;SDS011;9582;52.018;6.306;2023-03-08T02:48:14;60.43;;;26.07;;
18899;SDS011;9582;52.018;6.306;2023-03-08T02:50:41;129.57;;;29.53;;
18899;SDS011;9582;52.018;6.306;2023-03-08T02:53:08;56.20;;;24.23;;
18899;SDS011;9582;52.018;6.306;2023-03-08T02:55:35;61.10;;;26.20;;
18899;SDS011;9582;52.018;6.306;2023-03-08T02:58:08;65.17;;;25.10;;
18899;SDS011;9582;52.018;6.306;2023-03-08T03:00:36;87.73;;;28.03;;
18899;SDS011;9582;52.018;6.306;2023-03-08T03:03:03;70.00;;;24.77;;
18899;SDS011;9582;52.018;6.306;2023-03-08T03:05:29;89.77;;;26.80;;
18899;SDS011;9582;52.018;6.306;2023-03-08T03:07:59;84.43;;;25.40;;
18899;SDS011;9582;52.018;6.306;2023-03-08T03:10:27;91.93;;;27.03;;
18899;SDS011;9582;52.018;6.306;2023-03-08T03:12:54;71.17;;;24.83;;
18899;SDS011;9582;52.018;6.306;2023-03-08T03:15:25;115.63;;;27.77;;
18899;SDS011;9582;52.018;6.306;2023-03-08T03:17:56;71.13;;;24.60;;
18899;SDS011;9582;52.018;6.306;2023-03-08T03:20:22;129.80;;;29.10;;
18899;SDS011;9582;52.018;6.306;2023-03-08T03:22:49;170.10;;;31.83;;
18899;SDS011;9582;52.018;6.306;2023-03-08T03:25:18;81.03;;;26.10;;
18899;SDS011;9582;52.018;6.306;2023-03-08T03:27:46;187.27;;;48.72;;
18899;SDS011;9582;52.018;6.306;2023-03-08T03:30:14;84.37;;;29.13;;
18899;SDS011;9582;52.018;6.306;2023-03-08T03:32:43;93.77;;;27.90;;
18899;SDS011;9582;52.018;6.306;2023-03-08T03:35:10;82.27;;;26.80;;
18899;SDS011;9582;52.018;6.306;2023-03-08T03:37:37;73.23;;;26.53;;
18899;SDS011;9582;52.018;6.306;2023-03-08T03:40:05;71.83;;;26.07;;
18899;SDS011;9582;52.018;6.306;2023-03-08T03:42:32;94.63;;;27.57;;
18899;SDS011;9582;52.018;6.306;2023-03-08T03:45:05;71.23;;;25.40;;
18899;SDS011;9582;52.018;6.306;2023-03-08T03:47:33;58.37;;;24.83;;
18899;SDS011;9582;52.018;6.306;2023-03-08T03:50:04;74.10;;;27.33;;
18899;SDS011;9582;52.018;6.306;2023-03-08T03:52:41;60.40;;;24.77;;
18899;SDS011;9582;52.018;6.306;2023-03-08T03:55:08;95.50;;;27.70;;
18899;SDS011;9582;52.018;6.306;2023-03-08T03:57:35;114.23;;;29.57;;
18899;SDS011;9582;52.018;6.306;2023-03-08T04:00:03;91.43;;;28.00;;
18899;SDS011;9582;52.018;6.306;2023-03-08T04:02:38;83.33;;;26.70;;
18899;SDS011;9582;52.018;6.306;2023-03-08T04:05:07;71.07;;;25.33;;
18899;SDS011;9582;52.018;6.306;2023-03-08T04:07:35;91.47;;;27.90;;
18899;SDS011;9582;52.018;6.306;2023-03-08T04:10:02;78.13;;;26.33;;
18899;SDS011;9582;52.018;6.306;2023-03-08T04:12:30;75.53;;;24.10;;
18899;SDS011;9582;52.018;6.306;2023-03-08T04:14:57;72.47;;;24.77;;
18899;SDS011;9582;52.018;6.306;2023-03-08T04:17:27;51.37;;;20.57;;
18899;SDS011;9582;52.018;6.306;2023-03-08T04:19:54;72.90;;;25.23;;
18899;SDS011;9582;52.018;6.306;2023-03-08T04:22:22;86.47;;;27.50;;
18899;SDS011;9582;52.018;6.306;2023-03-08T04:25:00;97.10;;;27.37;;
18899;SDS011;9582;52.018;6.306;2023-03-08T04:27:35;69.00;;;25.00;;
18899;SDS011;9582;52.018;6.306;2023-03-08T04:30:02;75.40;;;26.20;;
18899;SDS011;9582;52.018;6.306;2023-03-08T04:32:30;61.87;;;24.47;;
18899;SDS011;9582;52.018;6.306;2023-03-08T04:34:57;62.57;;;25.30;;
18899;SDS011;9582;52.018;6.306;2023-03-08T04:37:28;104.90;;;28.80;;
18899;SDS011;9582;52.018;6.306;2023-03-08T04:40:00;84.43;;;28.03;;
18899;SDS011;9582;52.018;6.306;2023-03-08T04:42:31;83.77;;;27.63;;
18899;SDS011;9582;52.018;6.306;2023-03-08T04:44:58;109.57;;;30.37;;
18899;SDS011;9582;52.018;6.306;2023-03-08T04:47:25;115.20;;;30.33;;
18899;SDS011;9582;52.018;6.306;2023-03-08T04:49:51;124.63;;;29.87;;
18899;SDS011;9582;52.018;6.306;2023-03-08T04:52:18;108.87;;;31.57;;
18899;SDS011;9582;52.018;6.306;2023-03-08T04:54:47;62.03;;;25.67;;
18899;SDS011;9582;52.018;6.306;2023-03-08T04:57:18;65.57;;;27.03;;
18899;SDS011;9582;52.018;6.306;2023-03-08T04:59:45;83.03;;;28.03;;
18899;SDS011;9582;52.018;6.306;2023-03-08T05:02:12;79.77;;;27.13;;
18899;SDS011;9582;52.018;6.306;2023-03-08T05:04:39;148.13;;;33.67;;
18899;SDS011;9582;52.018;6.306;2023-03-08T05:07:06;85.87;;;26.67;;
18899;SDS011;9582;52.018;6.306;2023-03-08T05:09:34;108.20;;;27.10;;
18899;SDS011;9582;52.018;6.306;2023-03-08T05:12:02;135.73;;;31.90;;
18899;SDS011;9582;52.018;6.306;2023-03-08T05:14:41;105.30;;;28.63;;
18899;SDS011;9582;52.018;6.306;2023-03-08T05:17:08;80.63;;;24.73;;
18899;SDS011;9582;52.018;6.306;2023-03-08T05:19:34;131.67;;;29.97;;
18899;SDS011;9582;52.018;6.306;2023-03-08T05:22:01;167.20;;;33.53;;
18899;SDS011;9582;52.018;6.306;2023-03-08T05:24:30;85.57;;;26.17;;
18899;SDS011;9582;52.018;6.306;2023-03-08T05:27:00;149.30;;;30.07;;
18899;SDS011;9582;52.018;6.306;2023-03-08T05:29:28;147.00;;;30.60;;
18899;SDS011;9582;52.018;6.306;2023-03-08T05:31:54;110.40;;;28.57;;
18899;SDS011;9582;52.018;6.306;2023-03-08T05:34:23;180.83;;;33.33;;
18899;SDS011;9582;52.018;6.306;2023-03-08T05:36:50;134.93;;;29.13;;
18899;SDS011;9582;52.018;6.306;2023-03-08T05:39:17;118.10;;;28.63;;
18899;SDS011;9582;52.018;6.306;2023-03-08T05:41:56;135.13;;;28.13;;
18899;SDS011;9582;52.018;6.306;2023-03-08T05:44:35;99.37;;;24.90;;
18899;SDS011;9582;52.018;6.306;2023-03-08T05:47:02;129.07;;;28.37;;
18899;SDS011;9582;52.018;6.306;2023-03-08T05:49:29;115.27;;;29.27;;
18899;SDS011;9582;52.018;6.306;2023-03-08T05:51:56;90.10;;;28.33;;
18899;SDS011;9582;52.018;6.306;2023-03-08T05:54:24;94.17;;;28.17;;
18899;SDS011;9582;52.018;6.306;2023-03-08T05:56:54;139.63;;;31.63;;
18899;SDS011;9582;52.018;6.306;2023-03-08T05:59:24;78.63;;;27.40;;
18899;SDS011;9582;52.018;6.306;2023-03-08T06:01:54;89.73;;;28.30;;
18899;SDS011;9582;52.018;6.306;2023-03-08T06:04:32;79.03;;;26.00;;
18899;SDS011;9582;52.018;6.306;2023-03-08T06:06:59;74.63;;;25.03;;
18899;SDS011;9582;52.018;6.306;2023-03-08T06:09:31;64.70;;;23.20;;
18899;SDS011;9582;52.018;6.306;2023-03-08T06:11:58;70.10;;;25.83;;
18899;SDS011;9582;52.018;6.306;2023-03-08T06:14:25;67.63;;;24.57;;
18899;SDS011;9582;52.018;6.306;2023-03-08T06:16:52;43.00;;;19.93;;
18899;SDS011;9582;52.018;6.306;2023-03-08T06:19:24;50.67;;;21.77;;
18899;SDS011;9582;52.018;6.306;2023-03-08T06:21:52;36.80;;;17.03;;
18899;SDS011;9582;52.018;6.306;2023-03-08T06:24:19;49.53;;;21.83;;
18899;SDS011;9582;52.018;6.306;2023-03-08T06:26:46;55.27;;;22.97;;
18899;SDS011;9582;52.018;6.306;2023-03-08T06:29:14;42.90;;;20.20;;
18899;SDS011;9582;52.018;6.306;2023-03-08T06:31:41;41.70;;;19.50;;
18899;SDS011;9582;52.018;6.306;2023-03-08T06:34:08;52.83;;;22.23;;
18899;SDS011;9582;52.018;6.306;2023-03-08T06:36:38;54.17;;;22.47;;
18899;SDS011;9582;52.018;6.306;2023-03-08T06:39:04;74.50;;;25.13;;
18899;SDS011;9582;52.018;6.306;2023-03-08T06:41:31;52.57;;;22.57;;
18899;SDS011;9582;52.018;6.306;2023-03-08T06:44:00;65.67;;;23.43;;
18899;SDS011;9582;52.018;6.306;2023-03-08T06:46:27;52.20;;;21.90;;
18899;SDS011;9582;52.018;6.306;2023-03-08T06:48:53;64.77;;;25.10;;
18899;SDS011;9582;52.018;6.306;2023-03-08T06:51:21;65.03;;;24.43;;
18899;SDS011;9582;52.018;6.306;2023-03-08T06:53:50;59.03;;;24.17;;
18899;SDS011;9582;52.018;6.306;2023-03-08T06:56:20;70.80;;;25.20;;
18899;SDS011;9582;52.018;6.306;2023-03-08T06:58:46;61.87;;;23.57;;
18899;SDS011;9582;52.018;6.306;2023-03-08T07:01:13;68.53;;;26.80;;
18899;SDS011;9582;52.018;6.306;2023-03-08T07:03:39;72.03;;;26.90;;
18899;SDS011;9582;52.018;6.306;2023-03-08T07:06:09;69.83;;;26.93;;
18899;SDS011;9582;52.018;6.306;2023-03-08T07:08:36;71.07;;;27.50;;
18899;SDS011;9582;52.018;6.306;2023-03-08T07:11:05;75.47;;;27.13;;
18899;SDS011;9582;52.018;6.306;2023-03-08T07:13:32;82.97;;;29.00;;
18899;SDS011;9582;52.018;6.306;2023-03-08T07:16:03;84.70;;;28.60;;
18899;SDS011;9582;52.018;6.306;2023-03-08T07:18:31;74.63;;;28.70;;
18899;SDS011;9582;52.018;6.306;2023-03-08T07:20:57;105.40;;;30.63;;
18899;SDS011;9582;52.018;6.306;2023-03-08T07:23:24;98.07;;;30.50;;
18899;SDS011;9582;52.018;6.306;2023-03-08T07:25:52;109.83;;;32.10;;
18899;SDS011;9582;52.018;6.306;2023-03-08T07:28:21;115.90;;;32.20;;
18899;SDS011;9582;52.018;6.306;2023-03-08T07:30:48;110.50;;;32.17;;
18899;SDS011;9582;52.018;6.306;2023-03-08T07:33:16;110.40;;;33.20;;
18899;SDS011;9582;52.018;6.306;2023-03-08T07:35:44;120.53;;;32.83;;
18899;SDS011;9582;52.018;6.306;2023-03-08T07:38:10;139.33;;;34.33;;
18899;SDS011;9582;52.018;6.306;2023-03-08T07:40:37;115.17;;;34.17;;
18899;SDS011;9582;52.018;6.306;2023-03-08T07:43:04;95.83;;;30.20;;
18899;SDS011;9582;52.018;6.306;2023-03-08T07:45:52;96.87;;;30.83;;
18899;SDS011;9582;52.018;6.306;2023-03-08T07:48:18;105.57;;;31.50;;
18899;SDS011;9582;52.018;6.306;2023-03-08T07:50:45;103.90;;;31.70;;
18899;SDS011;9582;52.018;6.306;2023-03-08T07:53:11;99.20;;;31.30;;
18899;SDS011;9582;52.018;6.306;2023-03-08T07:55:38;114.40;;;32.37;;
18899;SDS011;9582;52.018;6.306;2023-03-08T07:58:04;104.87;;;31.33;;
18899;SDS011;9582;52.018;6.306;2023-03-08T08:00:31;115.70;;;32.57;;
18899;SDS011;9582;52.018;6.306;2023-03-08T08:02:59;112.03;;;32.23;;
18899;SDS011;9582;52.018;6.306;2023-03-08T08:05:25;94.23;;;30.37;;
18899;SDS011;9582;52.018;6.306;2023-03-08T08:07:52;86.83;;;29.90;;
18899;SDS011;9582;52.018;6.306;2023-03-08T08:10:18;97.53;;;31.37;;
18899;SDS011;9582;52.018;6.306;2023-03-08T08:12:45;93.97;;;29.93;;
18899;SDS011;9582;52.018;6.306;2023-03-08T08:15:11;98.13;;;31.43;;
18899;SDS011;9582;52.018;6.306;2023-03-08T08:17:38;94.53;;;31.80;;
18899;SDS011;9582;52.018;6.306;2023-03-08T08:20:06;85.73;;;29.77;;
18899;SDS011;9582;52.018;6.306;2023-03-08T08:22:34;94.07;;;31.57;;
18899;SDS011;9582;52.018;6.306;2023-03-08T08:25:02;78.47;;;29.57;;
18899;SDS011;9582;52.018;6.306;2023-03-08T08:27:29;92.53;;;30.77;;
18899;SDS011;9582;52.018;6.306;2023-03-08T08:29:55;88.27;;;29.83;;
18899;SDS011;9582;52.018;6.306;2023-03-08T08:32:23;97.43;;;32.93;;
18899;SDS011;9582;52.018;6.306;2023-03-08T08:34:49;91.47;;;31.07;;
18899;SDS011;9582;52.018;6.306;2023-03-08T08:37:17;99.00;;;32.03;;
18899;SDS011;9582;52.018;6.306;2023-03-08T08:39:44;105.13;;;31.10;;
18899;SDS011;9582;52.018;6.306;2023-03-08T08:42:10;93.83;;;32.30;;
18899;SDS011;9582;52.018;6.306;2023-03-08T08:44:37;91.53;;;33.37;;
18899;SDS011;9582;52.018;6.306;2023-03-08T08:47:03;96.73;;;34.57;;
18899;SDS011;9582;52.018;6.306;2023-03-08T08:49:30;103.90;;;32.43;;
18899;SDS011;9582;52.018;6.306;2023-03-08T08:51:56;95.33;;;31.80;;
18899;SDS011;9582;52.018;6.306;2023-03-08T08:54:24;98.63;;;32.57;;
18899;SDS011;9582;52.018;6.306;2023-03-08T08:56:51;92.83;;;31.77;;
18899;SDS011;9582;52.018;6.306;2023-03-08T08:59:17;101.30;;;33.23;;
18899;SDS011;9582;52.018;6.306;2023-03-08T09:01:45;101.63;;;33.97;;
18899;SDS011;9582;52.018;6.306;2023-03-08T09:04:12;98.07;;;34.73;;
18899;SDS011;9582;52.018;6.306;2023-03-08T09:06:41;108.20;;;33.97;;
18899;SDS011;9582;52.018;6.306;2023-03-08T09:09:07;109.67;;;34.80;;
18899;SDS011;9582;52.018;6.306;2023-03-08T09:11:35;109.20;;;36.17;;
18899;SDS011;9582;52.018;6.306;2023-03-08T09:14:02;91.63;;;34.23;;
18899;SDS011;9582;52.018;6.306;2023-03-08T09:16:29;81.70;;;33.80;;
18899;SDS011;9582;52.018;6.306;2023-03-08T09:18:57;91.17;;;33.53;;
18899;SDS011;9582;52.018;6.306;2023-03-08T09:21:24;79.40;;;31.60;;
18899;SDS011;9582;52.018;6.306;2023-03-08T09:23:52;91.43;;;33.40;;
18899;SDS011;9582;52.018;6.306;2023-03-08T09:26:19;85.23;;;31.70;;
18899;SDS011;9582;52.018;6.306;2023-03-08T09:28:47;79.90;;;32.07;;
18899;SDS011;9582;52.018;6.306;2023-03-08T09:31:14;77.90;;;31.07;;
18899;SDS011;9582;52.018;6.306;2023-03-08T09:33:42;68.90;;;31.37;;
18899;SDS011;9582;52.018;6.306;2023-03-08T09:36:10;68.83;;;30.90;;
18899;SDS011;9582;52.018;6.306;2023-03-08T09:38:37;81.03;;;33.63;;
18899;SDS011;9582;52.018;6.306;2023-03-08T09:41:13;83.57;;;32.77;;
18899;SDS011;9582;52.018;6.306;2023-03-08T09:43:53;78.80;;;32.33;;
18899;SDS011;9582;52.018;6.306;2023-03-08T09:46:33;70.43;;;29.87;;
18899;SDS011;9582;52.018;6.306;2023-03-08T09:49:03;67.60;;;30.73;;
18899;SDS011;9582;52.018;6.306;2023-03-08T09:51:37;67.70;;;29.93;;
18899;SDS011;9582;52.018;6.306;2023-03-08T09:54:10;58.53;;;25.23;;
18899;SDS011;9582;52.018;6.306;2023-03-08T09:56:40;64.87;;;28.00;;
18899;SDS011;9582;52.018;6.306;2023-03-08T09:59:13;53.30;;;24.07;;
18899;SDS011;9582;52.018;6.306;2023-03-08T10:01:47;53.40;;;25.43;;
18899;SDS011;9582;52.018;6.306;2023-03-08T10:04:28;51.20;;;24.17;;
18899;SDS011;9582;52.018;6.306;2023-03-08T10:07:09;46.37;;;21.63;;
18899;SDS011;9582;52.018;6.306;2023-03-08T10:09:46;34.87;;;18.47;;
18899;SDS011;9582;52.018;6.306;2023-03-08T10:12:19;32.43;;;17.43;;
18899;SDS011;9582;52.018;6.306;2023-03-08T10:14:55;38.70;;;17.83;;
18899;SDS011;9582;52.018;6.306;2023-03-08T10:17:27;37.30;;;17.30;;
18899;SDS011;9582;52.018;6.306;2023-03-08T10:20:11;32.00;;;16.47;;
18899;SDS011;9582;52.018;6.306;2023-03-08T10:22:44;30.17;;;15.47;;
18899;SDS011;9582;52.018;6.306;2023-03-08T10:25:18;29.73;;;14.67;;
18899;SDS011;9582;52.018;6.306;2023-03-08T10:27:47;26.17;;;13.47;;
18899;SDS011;9582;52.018;6.306;2023-03-08T10:30:21;29.07;;;15.07;;
18899;SDS011;9582;52.018;6.306;2023-03-08T10:32:49;26.17;;;13.23;;
18899;SDS011;9582;52.018;6.306;2023-03-08T10:35:29;18.87;;;9.53;;
18899;SDS011;9582;52.018;6.306;2023-03-08T10:37:57;24.80;;;12.97;;
18899;SDS011;9582;52.018;6.306;2023-03-08T10:40:23;21.00;;;12.17;;
18899;SDS011;9582;52.018;6.306;2023-03-08T10:42:50;24.10;;;13.73;;
18899;SDS011;9582;52.018;6.306;2023-03-08T10:45:20;20.63;;;11.10;;
18899;SDS011;9582;52.018;6.306;2023-03-08T10:47:55;21.30;;;12.03;;
18899;SDS011;9582;52.018;6.306;2023-03-08T10:50:23;21.20;;;11.10;;
18899;SDS011;9582;52.018;6.306;2023-03-08T10:52:52;20.83;;;12.33;;
18899;SDS011;9582;52.018;6.306;2023-03-08T10:55:19;19.67;;;11.67;;
18899;SDS011;9582;52.018;6.306;2023-03-08T10:57:48;25.53;;;12.80;;
18899;SDS011;9582;52.018;6.306;2023-03-08T11:00:23;20.20;;;13.07;;
18899;SDS011;9582;52.018;6.306;2023-03-08T11:03:03;21.73;;;11.70;;
18899;SDS011;9582;52.018;6.306;2023-03-08T11:05:37;26.07;;;13.37;;
18899;SDS011;9582;52.018;6.306;2023-03-08T11:08:13;23.07;;;13.37;;
18899;SDS011;9582;52.018;6.306;2023-03-08T11:10:42;20.40;;;11.67;;
18899;SDS011;9582;52.018;6.306;2023-03-08T11:13:13;21.30;;;11.77;;
18899;SDS011;9582;52.018;6.306;2023-03-08T11:15:49;21.53;;;14.03;;
18899;SDS011;9582;52.018;6.306;2023-03-08T11:18:23;20.77;;;11.00;;
18899;SDS011;9582;52.018;6.306;2023-03-08T11:21:02;18.40;;;10.60;;
18899;SDS011;9582;52.018;6.306;2023-03-08T11:23:36;15.37;;;8.23;;
18899;SDS011;9582;52.018;6.306;2023-03-08T11:26:08;18.10;;;11.00;;
18899;SDS011;9582;52.018;6.306;2023-03-08T11:28:47;16.23;;;10.63;;
18899;SDS011;9582;52.018;6.306;2023-03-08T11:31:26;16.50;;;10.67;;
18899;SDS011;9582;52.018;6.306;2023-03-08T11:34:13;17.83;;;11.10;;
18899;SDS011;9582;52.018;6.306;2023-03-08T11:36:55;15.93;;;9.87;;
18899;SDS011;9582;52.018;6.306;2023-03-08T11:39:28;19.57;;;10.63;;
18899;SDS011;9582;52.018;6.306;2023-03-08T11:41:59;15.07;;;9.40;;
18899;SDS011;9582;52.018;6.306;2023-03-08T11:44:34;17.90;;;11.30;;
18899;SDS011;9582;52.018;6.306;2023-03-08T11:47:22;17.13;;;9.57;;
18899;SDS011;9582;52.018;6.306;2023-03-08T11:50:11;14.37;;;7.97;;
18899;SDS011;9582;52.018;6.306;2023-03-08T11:52:46;15.60;;;9.37;;
18899;SDS011;9582;52.018;6.306;2023-03-08T11:55:32;15.13;;;9.20;;
18899;SDS011;9582;52.018;6.306;2023-03-08T11:58:07;15.20;;;9.57;;
18899;SDS011;9582;52.018;6.306;2023-03-08T12:00:40;14.13;;;9.40;;
18899;SDS011;9582;52.018;6.306;2023-03-08T12:03:12;13.73;;;8.73;;
18899;SDS011;9582;52.018;6.306;2023-03-08T12:05:42;13.67;;;8.70;;
18899;SDS011;9582;52.018;6.306;2023-03-08T12:08:14;13.37;;;8.90;;
18899;SDS011;9582;52.018;6.306;2023-03-08T12:10:45;12.97;;;8.30;;
18899;SDS011;9582;52.018;6.306;2023-03-08T12:13:17;12.87;;;7.90;;
18899;SDS011;9582;52.018;6.306;2023-03-08T12:15:48;7.70;;;3.97;;
18899;SDS011;9582;52.018;6.306;2023-03-08T12:18:22;11.53;;;7.67;;
18899;SDS011;9582;52.018;6.306;2023-03-08T12:20:53;9.07;;;6.50;;
18899;SDS011;9582;52.018;6.306;2023-03-08T12:23:29;10.70;;;7.50;;
18899;SDS011;9582;52.018;6.306;2023-03-08T12:26:03;9.40;;;5.87;;
18899;SDS011;9582;52.018;6.306;2023-03-08T12:28:37;7.97;;;5.27;;
18899;SDS011;9582;52.018;6.306;2023-03-08T12:31:12;11.30;;;5.90;;
18899;SDS011;9582;52.018;6.306;2023-03-08T12:33:50;11.97;;;6.87;;
18899;SDS011;9582;52.018;6.306;2023-03-08T12:36:18;9.67;;;6.67;;
18899;SDS011;9582;52.018;6.306;2023-03-08T12:38:46;10.80;;;7.30;;
18899;SDS011;9582;52.018;6.306;2023-03-08T12:41:21;8.97;;;5.03;;
18899;SDS011;9582;52.018;6.306;2023-03-08T12:43:59;8.03;;;5.83;;
18899;SDS011;9582;52.018;6.306;2023-03-08T12:46:32;8.17;;;5.43;;
18899;SDS011;9582;52.018;6.306;2023-03-08T12:49:18;9.50;;;6.33;;
18899;SDS011;9582;52.018;6.306;2023-03-08T12:51:54;7.13;;;5.47;;
18899;SDS011;9582;52.018;6.306;2023-03-08T12:54:23;7.10;;;4.40;;
18899;SDS011;9582;52.018;6.306;2023-03-08T12:56:50;7.80;;;5.83;;
18899;SDS011;9582;52.018;6.306;2023-03-08T12:59:27;8.77;;;5.70;;
18899;SDS011;9582;52.018;6.306;2023-03-08T13:01:59;9.80;;;6.30;;
18899;SDS011;9582;52.018;6.306;2023-03-08T13:04:30;7.37;;;5.40;;
18899;SDS011;9582;52.018;6.306;2023-03-08T13:07:16;8.27;;;6.23;;
18899;SDS011;9582;52.018;6.306;2023-03-08T13:09:49;10.67;;;6.13;;
18899;SDS011;9582;52.018;6.306;2023-03-08T13:15:24;8.60;;;5.83;;
18899;SDS011;9582;52.018;6.306;2023-03-08T13:17:55;7.87;;;4.60;;
18899;SDS011;9582;52.018;6.306;2023-03-08T13:20:32;6.43;;;4.17;;
18899;SDS011;9582;52.018;6.306;2023-03-08T13:23:19;8.00;;;6.00;;
18899;SDS011;9582;52.018;6.306;2023-03-08T13:26:01;6.10;;;4.33;;
18899;SDS011;9582;52.018;6.306;2023-03-08T13:28:45;5.67;;;4.47;;
18899;SDS011;9582;52.018;6.306;2023-03-08T13:31:12;7.33;;;5.53;;
18899;SDS011;9582;52.018;6.306;2023-03-08T13:33:41;8.37;;;6.50;;
18899;SDS011;9582;52.018;6.306;2023-03-08T13:36:16;7.93;;;5.67;;
18899;SDS011;9582;52.018;6.306;2023-03-08T13:38:53;6.80;;;5.30;;
18899;SDS011;9582;52.018;6.306;2023-03-08T13:41:29;7.37;;;5.77;;
18899;SDS011;9582;52.018;6.306;2023-03-08T13:43:59;7.90;;;5.80;;
18899;SDS011;9582;52.018;6.306;2023-03-08T13:46:26;8.30;;;4.87;;
18899;SDS011;9582;52.018;6.306;2023-03-08T13:48:52;7.53;;;5.57;;
18899;SDS011;9582;52.018;6.306;2023-03-08T13:51:20;7.10;;;4.93;;
18899;SDS011;9582;52.018;6.306;2023-03-08T13:53:51;8.17;;;5.83;;
18899;SDS011;9582;52.018;6.306;2023-03-08T13:56:20;8.37;;;5.97;;
18899;SDS011;9582;52.018;6.306;2023-03-08T13:58:49;6.87;;;5.30;;
18899;SDS011;9582;52.018;6.306;2023-03-08T14:01:18;6.67;;;4.90;;
18899;SDS011;9582;52.018;6.306;2023-03-08T14:03:47;6.40;;;4.80;;
18899;SDS011;9582;52.018;6.306;2023-03-08T14:06:16;7.67;;;5.63;;
18899;SDS011;9582;52.018;6.306;2023-03-08T14:08:45;7.03;;;5.17;;
18899;SDS011;9582;52.018;6.306;2023-03-08T14:11:13;8.40;;;5.63;;
18899;SDS011;9582;52.018;6.306;2023-03-08T14:13:44;8.77;;;5.83;;
18899;SDS011;9582;52.018;6.306;2023-03-08T14:16:21;6.53;;;4.90;;
18899;SDS011;9582;52.018;6.306;2023-03-08T14:18:50;7.43;;;5.53;;
18899;SDS011;9582;52.018;6.306;2023-03-08T14:21:17;7.10;;;5.53;;
18899;SDS011;9582;52.018;6.306;2023-03-08T14:23:47;8.00;;;5.13;;
18899;SDS011;9582;52.018;6.306;2023-03-08T14:26:22;6.90;;;4.67;;
18899;SDS011;9582;52.018;6.306;2023-03-08T14:29:01;6.83;;;4.53;;
18899;SDS011;9582;52.018;6.306;2023-03-08T14:31:29;6.53;;;4.83;;
18899;SDS011;9582;52.018;6.306;2023-03-08T14:33:56;7.83;;;5.57;;
18899;SDS011;9582;52.018;6.306;2023-03-08T14:36:24;7.40;;;5.27;;
18899;SDS011;9582;52.018;6.306;2023-03-08T14:38:53;7.10;;;5.43;;
18899;SDS011;9582;52.018;6.306;2023-03-08T14:41:28;6.90;;;4.63;;
18899;SDS011;9582;52.018;6.306;2023-03-08T14:43:56;8.13;;;5.63;;
18899;SDS011;9582;52.018;6.306;2023-03-08T14:46:23;7.37;;;5.30;;
18899;SDS011;9582;52.018;6.306;2023-03-08T14:48:55;8.10;;;5.60;;
18899;SDS011;9582;52.018;6.306;2023-03-08T14:51:24;7.47;;;4.90;;
18899;SDS011;9582;52.018;6.306;2023-03-08T14:53:59;8.03;;;5.33;;
18899;SDS011;9582;52.018;6.306;2023-03-08T14:56:27;7.63;;;6.03;;
18899;SDS011;9582;52.018;6.306;2023-03-08T14:58:57;8.07;;;5.50;;